sensor_id;sensor_type;location;lat;lon;timestamp;temperature;humidity
14471;DHT22;7321;50.802;4.336;2023-04-24T00:00:04;10.90;99.90
14471;DHT22;7321;50.802;4.336;2023-04-24T00:02:38;11.00;99.90
14471;DHT22;7321;50.802;4.336;2023-04-24T00:05:07;11.00;99.90
14471;DHT22;7321;50.802;4.336;2023-04-24T00:07:34;11.10;99.90
14471;DHT22;7321;50.802;4.336;2023-04-24T00:10:00;11.00;99.90
14471;DHT22;7321;50.802;4.336;2023-04-24T00:12:26;10.90;99.90
14471;DHT22;7321;50.802;4.336;2023-04-24T00:14:53;11.00;99.90
14471;DHT22;7321;50.802;4.336;2023-04-24T00:17:19;11.10;99.90
14471;DHT22;7321;50.802;4.336;2023-04-24T00:19:48;11.00;99.90
14471;DHT22;7321;50.802;4.336;2023-04-24T00:22:14;11.00;99.90
14471;DHT22;7321;50.802;4.336;2023-04-24T00:24:40;11.10;99.90
14471;DHT22;7321;50.802;4.336;2023-04-24T00:27:06;11.10;99.90
14471;DHT22;7321;50.802;4.336;2023-04-24T00:29:32;10.90;99.90
14471;DHT22;7321;50.802;4.336;2023-04-24T00:31:57;10.90;99.90
14471;DHT22;7321;50.802;4.336;2023-04-24T00:34:23;11.00;99.90
14471;DHT22;7321;50.802;4.336;2023-04-24T00:36:49;11.00;99.90
14471;DHT22;7321;50.802;4.336;2023-04-24T00:39:21;11.00;99.90
14471;DHT22;7321;50.802;4.336;2023-04-24T00:41:48;10.90;99.90
14471;DHT22;7321;50.802;4.336;2023-04-24T00:44:14;10.80;99.90
14471;DHT22;7321;50.802;4.336;2023-04-24T00:46:41;11.00;99.90
14471;DHT22;7321;50.802;4.336;2023-04-24T00:49:07;10.90;99.90
14471;DHT22;7321;50.802;4.336;2023-04-24T00:51:33;11.00;99.90
14471;DHT22;7321;50.802;4.336;2023-04-24T00:54:00;10.80;99.90
14471;DHT22;7321;50.802;4.336;2023-04-24T00:56:26;10.80;99.90
14471;DHT22;7321;50.802;4.336;2023-04-24T00:58:53;10.80;99.90
14471;DHT22;7321;50.802;4.336;2023-04-24T01:01:21;10.70;99.90
14471;DHT22;7321;50.802;4.336;2023-04-24T01:03:51;10.80;99.90
14471;DHT22;7321;50.802;4.336;2023-04-24T01:06:18;10.90;99.90
14471;DHT22;7321;50.802;4.336;2023-04-24T01:08:45;10.80;99.90
14471;DHT22;7321;50.802;4.336;2023-04-24T01:11:12;10.80;99.90
14471;DHT22;7321;50.802;4.336;2023-04-24T01:13:38;10.80;99.90
14471;DHT22;7321;50.802;4.336;2023-04-24T01:16:04;10.70;99.90
14471;DHT22;7321;50.802;4.336;2023-04-24T01:18:29;10.70;99.90
14471;DHT22;7321;50.802;4.336;2023-04-24T01:20:59;10.80;99.90
14471;DHT22;7321;50.802;4.336;2023-04-24T01:23:28;10.80;99.90
14471;DHT22;7321;50.802;4.336;2023-04-24T01:25:54;10.70;99.90
14471;DHT22;7321;50.802;4.336;2023-04-24T01:28:20;10.80;99.90
14471;DHT22;7321;50.802;4.336;2023-04-24T01:30:46;10.60;99.90
14471;DHT22;7321;50.802;4.336;2023-04-24T01:33:12;10.40;99.90
14471;DHT22;7321;50.802;4.336;2023-04-24T01:35:38;10.50;99.90
14471;DHT22;7321;50.802;4.336;2023-04-24T01:38:04;10.60;99.90
14471;DHT22;7321;50.802;4.336;2023-04-24T01:40:32;10.60;99.90
14471;DHT22;7321;50.802;4.336;2023-04-24T01:42:58;10.50;99.90
14471;DHT22;7321;50.802;4.336;2023-04-24T01:45:24;10.40;99.90
14471;DHT22;7321;50.802;4.336;2023-04-24T01:47:50;10.40;99.90
14471;DHT22;7321;50.802;4.336;2023-04-24T01:50:17;10.30;99.90
14471;DHT22;7321;50.802;4.336;2023-04-24T01:52:43;10.30;99.90
14471;DHT22;7321;50.802;4.336;2023-04-24T01:55:09;10.30;99.90
14471;DHT22;7321;50.802;4.336;2023-04-24T01:57:36;10.20;99.90
14471;DHT22;7321;50.802;4.336;2023-04-24T02:00:03;10.20;99.90
14471;DHT22;7321;50.802;4.336;2023-04-24T02:02:30;10.30;99.90
14471;DHT22;7321;50.802;4.336;2023-04-24T02:04:57;10.40;99.90
14471;DHT22;7321;50.802;4.336;2023-04-24T02:07:23;10.40;99.90
14471;DHT22;7321;50.802;4.336;2023-04-24T02:09:49;10.30;99.90
14471;DHT22;7321;50.802;4.336;2023-04-24T02:12:15;10.30;99.90
14471;DHT22;7321;50.802;4.336;2023-04-24T02:14:43;10.30;99.90
14471;DHT22;7321;50.802;4.336;2023-04-24T02:17:09;10.20;99.90
14471;DHT22;7321;50.802;4.336;2023-04-24T02:19:35;10.20;99.90
14471;DHT22;7321;50.802;4.336;2023-04-24T02:22:01;10.40;99.90
14471;DHT22;7321;50.802;4.336;2023-04-24T02:24:27;10.30;99.90
14471;DHT22;7321;50.802;4.336;2023-04-24T02:26:52;10.30;99.90
14471;DHT22;7321;50.802;4.336;2023-04-24T02:29:18;10.30;99.90
14471;DHT22;7321;50.802;4.336;2023-04-24T02:31:44;10.20;99.90
14471;DHT22;7321;50.802;4.336;2023-04-24T02:34:10;10.20;99.90
14471;DHT22;7321;50.802;4.336;2023-04-24T02:36:36;10.20;99.90
14471;DHT22;7321;50.802;4.336;2023-04-24T02:39:01;10.20;99.90
14471;DHT22;7321;50.802;4.336;2023-04-24T02:41:28;10.20;99.90
14471;DHT22;7321;50.802;4.336;2023-04-24T02:43:58;10.10;99.90
14471;DHT22;7321;50.802;4.336;2023-04-24T02:46:24;10.10;99.90
14471;DHT22;7321;50.802;4.336;2023-04-24T02:48:51;10.10;99.90
14471;DHT22;7321;50.802;4.336;2023-04-24T02:51:17;10.20;99.90
14471;DHT22;7321;50.802;4.336;2023-04-24T02:53:43;10.20;99.90
14471;DHT22;7321;50.802;4.336;2023-04-24T02:56:09;10.20;99.90
14471;DHT22;7321;50.802;4.336;2023-04-24T02:58:37;10.30;99.90
14471;DHT22;7321;50.802;4.336;2023-04-24T03:01:03;10.30;99.90
14471;DHT22;7321;50.802;4.336;2023-04-24T03:03:30;10.20;99.90
14471;DHT22;7321;50.802;4.336;2023-04-24T03:05:56;10.30;99.90
14471;DHT22;7321;50.802;4.336;2023-04-24T03:08:22;10.30;99.90
14471;DHT22;7321;50.802;4.336;2023-04-24T03:10:48;10.30;99.90
14471;DHT22;7321;50.802;4.336;2023-04-24T03:13:15;10.20;99.90
14471;DHT22;7321;50.802;4.336;2023-04-24T03:15:42;10.10;99.90
14471;DHT22;7321;50.802;4.336;2023-04-24T03:18:07;10.10;99.90
14471;DHT22;7321;50.802;4.336;2023-04-24T03:20:33;10.10;99.90
14471;DHT22;7321;50.802;4.336;2023-04-24T03:22:59;10.20;99.90
14471;DHT22;7321;50.802;4.336;2023-04-24T03:25:25;10.10;99.90
14471;DHT22;7321;50.802;4.336;2023-04-24T03:27:51;10.20;99.90
14471;DHT22;7321;50.802;4.336;2023-04-24T03:30:17;10.10;99.90
14471;DHT22;7321;50.802;4.336;2023-04-24T03:32:43;10.10;99.90
14471;DHT22;7321;50.802;4.336;2023-04-24T03:35:09;10.10;99.90
14471;DHT22;7321;50.802;4.336;2023-04-24T03:37:35;10.10;99.90
14471;DHT22;7321;50.802;4.336;2023-04-24T03:40:01;10.10;99.90
14471;DHT22;7321;50.802;4.336;2023-04-24T03:42:27;10.10;99.90
14471;DHT22;7321;50.802;4.336;2023-04-24T03:44:54;10.20;99.90
14471;DHT22;7321;50.802;4.336;2023-04-24T03:47:19;10.10;99.90
14471;DHT22;7321;50.802;4.336;2023-04-24T03:49:45;10.20;99.90
14471;DHT22;7321;50.802;4.336;2023-04-24T03:52:11;10.10;99.90
14471;DHT22;7321;50.802;4.336;2023-04-24T03:54:37;10.10;99.90
14471;DHT22;7321;50.802;4.336;2023-04-24T03:57:02;10.10;99.90
14471;DHT22;7321;50.802;4.336;2023-04-24T03:59:30;10.10;99.90
14471;DHT22;7321;50.802;4.336;2023-04-24T04:01:56;10.30;99.90
14471;DHT22;7321;50.802;4.336;2023-04-24T04:04:22;10.50;99.90
14471;DHT22;7321;50.802;4.336;2023-04-24T04:06:48;10.50;99.90
14471;DHT22;7321;50.802;4.336;2023-04-24T04:09:14;10.50;99.90
14471;DHT22;7321;50.802;4.336;2023-04-24T04:11:40;10.60;99.90
14471;DHT22;7321;50.802;4.336;2023-04-24T04:14:06;10.60;99.90
14471;DHT22;7321;50.802;4.336;2023-04-24T04:16:33;10.60;99.90
14471;DHT22;7321;50.802;4.336;2023-04-24T04:18:59;10.70;99.90
14471;DHT22;7321;50.802;4.336;2023-04-24T04:21:25;10.70;99.90
14471;DHT22;7321;50.802;4.336;2023-04-24T04:23:52;10.80;99.90
14471;DHT22;7321;50.802;4.336;2023-04-24T04:26:17;10.80;99.90
14471;DHT22;7321;50.802;4.336;2023-04-24T04:28:47;10.70;99.90
14471;DHT22;7321;50.802;4.336;2023-04-24T04:31:14;10.80;99.90
14471;DHT22;7321;50.802;4.336;2023-04-24T04:33:45;10.80;99.90
14471;DHT22;7321;50.802;4.336;2023-04-24T04:36:11;10.70;99.90
14471;DHT22;7321;50.802;4.336;2023-04-24T04:38:37;10.60;99.90
14471;DHT22;7321;50.802;4.336;2023-04-24T04:41:03;10.60;99.90
14471;DHT22;7321;50.802;4.336;2023-04-24T04:43:29;10.70;99.90
14471;DHT22;7321;50.802;4.336;2023-04-24T04:45:57;10.70;99.90
14471;DHT22;7321;50.802;4.336;2023-04-24T04:48:23;10.50;99.90
14471;DHT22;7321;50.802;4.336;2023-04-24T04:50:49;10.30;99.90
14471;DHT22;7321;50.802;4.336;2023-04-24T04:53:15;10.10;99.90
14471;DHT22;7321;50.802;4.336;2023-04-24T04:55:41;10.00;99.90
14471;DHT22;7321;50.802;4.336;2023-04-24T04:58:07;10.00;99.90
14471;DHT22;7321;50.802;4.336;2023-04-24T05:00:33;10.00;99.90
14471;DHT22;7321;50.802;4.336;2023-04-24T05:03:01;9.90;99.90
14471;DHT22;7321;50.802;4.336;2023-04-24T05:05:27;9.90;99.90
14471;DHT22;7321;50.802;4.336;2023-04-24T05:07:53;10.00;99.90
14471;DHT22;7321;50.802;4.336;2023-04-24T05:10:19;9.80;99.90
14471;DHT22;7321;50.802;4.336;2023-04-24T05:12:45;9.90;99.90
14471;DHT22;7321;50.802;4.336;2023-04-24T05:15:11;10.00;99.90
14471;DHT22;7321;50.802;4.336;2023-04-24T05:17:37;10.10;99.90
14471;DHT22;7321;50.802;4.336;2023-04-24T05:20:03;10.10;99.90
14471;DHT22;7321;50.802;4.336;2023-04-24T05:22:31;10.20;99.90
14471;DHT22;7321;50.802;4.336;2023-04-24T05:24:57;10.10;99.90
14471;DHT22;7321;50.802;4.336;2023-04-24T05:27:23;10.10;99.90
14471;DHT22;7321;50.802;4.336;2023-04-24T05:29:49;10.20;99.90
14471;DHT22;7321;50.802;4.336;2023-04-24T05:32:15;10.10;99.90
14471;DHT22;7321;50.802;4.336;2023-04-24T05:34:41;10.10;99.90
14471;DHT22;7321;50.802;4.336;2023-04-24T05:37:07;10.10;99.90
14471;DHT22;7321;50.802;4.336;2023-04-24T05:39:35;10.20;99.90
14471;DHT22;7321;50.802;4.336;2023-04-24T05:42:02;10.30;99.90
14471;DHT22;7321;50.802;4.336;2023-04-24T05:44:28;10.20;99.90
14471;DHT22;7321;50.802;4.336;2023-04-24T05:46:54;10.20;99.90
14471;DHT22;7321;50.802;4.336;2023-04-24T05:49:21;10.40;99.90
14471;DHT22;7321;50.802;4.336;2023-04-24T05:51:47;10.40;99.90
14471;DHT22;7321;50.802;4.336;2023-04-24T05:54:13;10.30;99.90
14471;DHT22;7321;50.802;4.336;2023-04-24T05:56:39;10.40;99.90
14471;DHT22;7321;50.802;4.336;2023-04-24T05:59:05;10.40;99.90
14471;DHT22;7321;50.802;4.336;2023-04-24T06:01:31;10.30;99.90
14471;DHT22;7321;50.802;4.336;2023-04-24T06:03:58;10.20;99.90
14471;DHT22;7321;50.802;4.336;2023-04-24T06:06:24;10.20;99.90
14471;DHT22;7321;50.802;4.336;2023-04-24T06:08:51;10.10;99.90
14471;DHT22;7321;50.802;4.336;2023-04-24T06:11:16;10.10;99.90
14471;DHT22;7321;50.802;4.336;2023-04-24T06:13:42;10.10;99.90
14471;DHT22;7321;50.802;4.336;2023-04-24T06:16:08;10.10;99.90
14471;DHT22;7321;50.802;4.336;2023-04-24T06:18:34;10.10;99.90
14471;DHT22;7321;50.802;4.336;2023-04-24T06:21:00;10.00;99.90
14471;DHT22;7321;50.802;4.336;2023-04-24T06:23:26;10.10;99.90
14471;DHT22;7321;50.802;4.336;2023-04-24T06:25:52;10.20;99.90
14471;DHT22;7321;50.802;4.336;2023-04-24T06:28:18;10.20;99.90
14471;DHT22;7321;50.802;4.336;2023-04-24T06:30:44;10.00;99.90
14471;DHT22;7321;50.802;4.336;2023-04-24T06:33:10;9.90;99.90
14471;DHT22;7321;50.802;4.336;2023-04-24T06:35:36;10.00;99.90
14471;DHT22;7321;50.802;4.336;2023-04-24T06:38:03;9.90;99.90
14471;DHT22;7321;50.802;4.336;2023-04-24T06:40:29;10.10;99.90
14471;DHT22;7321;50.802;4.336;2023-04-24T06:42:55;10.10;99.90
14471;DHT22;7321;50.802;4.336;2023-04-24T06:45:23;10.10;99.90
14471;DHT22;7321;50.802;4.336;2023-04-24T06:47:49;10.10;99.90
14471;DHT22;7321;50.802;4.336;2023-04-24T06:50:15;10.20;99.90
14471;DHT22;7321;50.802;4.336;2023-04-24T06:52:42;10.20;99.90
14471;DHT22;7321;50.802;4.336;2023-04-24T06:55:08;10.30;99.90
14471;DHT22;7321;50.802;4.336;2023-04-24T06:57:40;10.40;99.90
14471;DHT22;7321;50.802;4.336;2023-04-24T07:00:06;10.50;99.90
14471;DHT22;7321;50.802;4.336;2023-04-24T07:02:32;10.50;99.90
14471;DHT22;7321;50.802;4.336;2023-04-24T07:04:58;10.70;99.90
14471;DHT22;7321;50.802;4.336;2023-04-24T07:07:24;10.90;99.90
14471;DHT22;7321;50.802;4.336;2023-04-24T07:09:50;11.00;99.90
14471;DHT22;7321;50.802;4.336;2023-04-24T07:12:16;10.90;99.90
14471;DHT22;7321;50.802;4.336;2023-04-24T07:14:42;10.90;99.90
14471;DHT22;7321;50.802;4.336;2023-04-24T07:17:08;10.90;99.90
14471;DHT22;7321;50.802;4.336;2023-04-24T07:19:34;11.00;99.90
14471;DHT22;7321;50.802;4.336;2023-04-24T07:22:03;10.90;99.90
14471;DHT22;7321;50.802;4.336;2023-04-24T07:24:29;10.90;99.90
14471;DHT22;7321;50.802;4.336;2023-04-24T07:26:55;11.00;99.90
14471;DHT22;7321;50.802;4.336;2023-04-24T07:29:22;11.10;99.90
14471;DHT22;7321;50.802;4.336;2023-04-24T07:31:48;11.20;99.90
14471;DHT22;7321;50.802;4.336;2023-04-24T07:34:14;11.30;99.90
14471;DHT22;7321;50.802;4.336;2023-04-24T07:36:41;11.40;99.90
14471;DHT22;7321;50.802;4.336;2023-04-24T07:39:07;11.50;99.90
14471;DHT22;7321;50.802;4.336;2023-04-24T07:41:33;11.60;99.90
14471;DHT22;7321;50.802;4.336;2023-04-24T07:43:59;11.50;99.90
14471;DHT22;7321;50.802;4.336;2023-04-24T07:46:25;11.30;99.90
14471;DHT22;7321;50.802;4.336;2023-04-24T07:48:55;11.10;99.90
14471;DHT22;7321;50.802;4.336;2023-04-24T07:51:21;11.20;99.90
14471;DHT22;7321;50.802;4.336;2023-04-24T07:53:47;11.40;99.90
14471;DHT22;7321;50.802;4.336;2023-04-24T07:56:13;11.40;99.90
14471;DHT22;7321;50.802;4.336;2023-04-24T07:58:39;11.40;99.90
14471;DHT22;7321;50.802;4.336;2023-04-24T08:01:05;11.30;99.90
14471;DHT22;7321;50.802;4.336;2023-04-24T08:03:31;11.40;99.90
14471;DHT22;7321;50.802;4.336;2023-04-24T08:05:57;11.40;99.90
14471;DHT22;7321;50.802;4.336;2023-04-24T08:08:23;11.40;99.90
14471;DHT22;7321;50.802;4.336;2023-04-24T08:10:49;11.50;99.90
14471;DHT22;7321;50.802;4.336;2023-04-24T08:13:15;11.60;99.90
14471;DHT22;7321;50.802;4.336;2023-04-24T08:15:41;11.50;99.90
14471;DHT22;7321;50.802;4.336;2023-04-24T08:18:07;11.50;99.90
14471;DHT22;7321;50.802;4.336;2023-04-24T08:20:33;11.60;99.90
14471;DHT22;7321;50.802;4.336;2023-04-24T08:22:59;11.70;99.90
14471;DHT22;7321;50.802;4.336;2023-04-24T08:25:25;11.90;99.90
14471;DHT22;7321;50.802;4.336;2023-04-24T08:27:51;11.90;99.90
14471;DHT22;7321;50.802;4.336;2023-04-24T08:30:17;12.00;99.90
14471;DHT22;7321;50.802;4.336;2023-04-24T08:32:43;12.00;99.90
14471;DHT22;7321;50.802;4.336;2023-04-24T08:35:12;12.00;99.90
14471;DHT22;7321;50.802;4.336;2023-04-24T08:37:38;12.00;99.90
14471;DHT22;7321;50.802;4.336;2023-04-24T08:40:13;12.00;99.90
14471;DHT22;7321;50.802;4.336;2023-04-24T08:42:43;12.00;99.90
14471;DHT22;7321;50.802;4.336;2023-04-24T08:45:10;12.10;99.90
14471;DHT22;7321;50.802;4.336;2023-04-24T08:47:38;12.30;99.90
14471;DHT22;7321;50.802;4.336;2023-04-24T08:50:04;12.40;99.90
14471;DHT22;7321;50.802;4.336;2023-04-24T08:52:33;12.60;99.90
14471;DHT22;7321;50.802;4.336;2023-04-24T08:55:03;12.60;99.90
14471;DHT22;7321;50.802;4.336;2023-04-24T08:57:29;12.70;99.90
14471;DHT22;7321;50.802;4.336;2023-04-24T08:59:58;12.60;99.90
14471;DHT22;7321;50.802;4.336;2023-04-24T09:02:24;12.70;99.90
14471;DHT22;7321;50.802;4.336;2023-04-24T09:04:51;12.90;99.90
14471;DHT22;7321;50.802;4.336;2023-04-24T09:07:19;13.10;99.90
14471;DHT22;7321;50.802;4.336;2023-04-24T09:09:45;13.10;99.90
14471;DHT22;7321;50.802;4.336;2023-04-24T09:12:12;13.30;99.90
14471;DHT22;7321;50.802;4.336;2023-04-24T09:14:38;13.50;99.90
14471;DHT22;7321;50.802;4.336;2023-04-24T09:17:08;13.50;99.90
14471;DHT22;7321;50.802;4.336;2023-04-24T09:19:34;13.90;99.90
14471;DHT22;7321;50.802;4.336;2023-04-24T09:21:59;14.10;99.90
14471;DHT22;7321;50.802;4.336;2023-04-24T09:24:30;13.90;99.90
14471;DHT22;7321;50.802;4.336;2023-04-24T09:26:57;13.70;99.90
14471;DHT22;7321;50.802;4.336;2023-04-24T09:29:29;13.50;99.90
14471;DHT22;7321;50.802;4.336;2023-04-24T09:31:55;13.40;99.90
14471;DHT22;7321;50.802;4.336;2023-04-24T09:34:23;13.30;99.90
14471;DHT22;7321;50.802;4.336;2023-04-24T09:36:50;13.50;99.90
14471;DHT22;7321;50.802;4.336;2023-04-24T09:39:17;13.30;99.90
14471;DHT22;7321;50.802;4.336;2023-04-24T09:44:24;13.50;99.90
14471;DHT22;7321;50.802;4.336;2023-04-24T09:46:55;13.60;99.90
14471;DHT22;7321;50.802;4.336;2023-04-24T09:49:28;13.70;99.90
14471;DHT22;7321;50.802;4.336;2023-04-24T09:52:10;13.60;99.90
14471;DHT22;7321;50.802;4.336;2023-04-24T09:54:37;13.50;99.90
14471;DHT22;7321;50.802;4.336;2023-04-24T09:57:04;13.40;99.90
14471;DHT22;7321;50.802;4.336;2023-04-24T09:59:30;13.10;99.90
14471;DHT22;7321;50.802;4.336;2023-04-24T10:01:56;13.00;99.90
14471;DHT22;7321;50.802;4.336;2023-04-24T10:04:28;13.10;99.90
14471;DHT22;7321;50.802;4.336;2023-04-24T10:06:56;13.20;99.90
14471;DHT22;7321;50.802;4.336;2023-04-24T10:09:24;12.90;99.90
14471;DHT22;7321;50.802;4.336;2023-04-24T10:11:51;12.80;99.90
14471;DHT22;7321;50.802;4.336;2023-04-24T10:14:21;12.70;99.90
14471;DHT22;7321;50.802;4.336;2023-04-24T10:16:48;12.70;99.90
14471;DHT22;7321;50.802;4.336;2023-04-24T10:19:15;12.60;99.90
14471;DHT22;7321;50.802;4.336;2023-04-24T10:21:43;12.80;99.90
14471;DHT22;7321;50.802;4.336;2023-04-24T10:24:16;12.90;99.90
14471;DHT22;7321;50.802;4.336;2023-04-24T10:26:44;12.90;99.90
14471;DHT22;7321;50.802;4.336;2023-04-24T10:29:12;13.20;99.90
14471;DHT22;7321;50.802;4.336;2023-04-24T10:31:39;13.50;99.90
14471;DHT22;7321;50.802;4.336;2023-04-24T10:34:07;13.40;99.90
14471;DHT22;7321;50.802;4.336;2023-04-24T10:36:34;13.30;99.90
14471;DHT22;7321;50.802;4.336;2023-04-24T10:39:02;13.20;99.90
14471;DHT22;7321;50.802;4.336;2023-04-24T10:41:30;13.10;99.90
14471;DHT22;7321;50.802;4.336;2023-04-24T10:44:09;12.90;99.90
14471;DHT22;7321;50.802;4.336;2023-04-24T10:46:39;13.10;99.90
14471;DHT22;7321;50.802;4.336;2023-04-24T10:49:06;13.30;99.90
14471;DHT22;7321;50.802;4.336;2023-04-24T10:51:50;13.60;99.90
14471;DHT22;7321;50.802;4.336;2023-04-24T10:54:44;13.80;99.90
14471;DHT22;7321;50.802;4.336;2023-04-24T10:59:46;13.70;99.90
14471;DHT22;7321;50.802;4.336;2023-04-24T11:02:16;13.60;99.90
14471;DHT22;7321;50.802;4.336;2023-04-24T11:04:43;13.70;99.90
14471;DHT22;7321;50.802;4.336;2023-04-24T11:07:10;13.60;99.90
14471;DHT22;7321;50.802;4.336;2023-04-24T11:09:36;13.60;99.90
14471;DHT22;7321;50.802;4.336;2023-04-24T11:12:20;13.90;99.90
14471;DHT22;7321;50.802;4.336;2023-04-24T11:17:47;13.80;99.90
14471;DHT22;7321;50.802;4.336;2023-04-24T11:20:17;13.90;99.90
14471;DHT22;7321;50.802;4.336;2023-04-24T11:22:43;14.20;99.90
14471;DHT22;7321;50.802;4.336;2023-04-24T11:25:09;14.50;99.90
14471;DHT22;7321;50.802;4.336;2023-04-24T11:27:44;14.20;99.90
14471;DHT22;7321;50.802;4.336;2023-04-24T11:30:12;13.90;99.90
14471;DHT22;7321;50.802;4.336;2023-04-24T11:32:40;13.70;99.90
14471;DHT22;7321;50.802;4.336;2023-04-24T11:35:15;13.80;99.90
14471;DHT22;7321;50.802;4.336;2023-04-24T11:37:48;13.70;99.90
14471;DHT22;7321;50.802;4.336;2023-04-24T11:40:16;13.90;99.90
14471;DHT22;7321;50.802;4.336;2023-04-24T11:42:44;13.80;99.90
14471;DHT22;7321;50.802;4.336;2023-04-24T11:45:26;13.80;99.90
14471;DHT22;7321;50.802;4.336;2023-04-24T11:47:52;14.10;99.90
14471;DHT22;7321;50.802;4.336;2023-04-24T11:50:21;14.30;99.90
14471;DHT22;7321;50.802;4.336;2023-04-24T11:52:49;14.40;99.90
14471;DHT22;7321;50.802;4.336;2023-04-24T11:57:49;14.90;99.90
14471;DHT22;7321;50.802;4.336;2023-04-24T12:00:20;14.70;99.90
14471;DHT22;7321;50.802;4.336;2023-04-24T12:02:47;14.70;99.90
14471;DHT22;7321;50.802;4.336;2023-04-24T12:05:24;14.60;99.90
14471;DHT22;7321;50.802;4.336;2023-04-24T12:07:52;14.30;99.90
14471;DHT22;7321;50.802;4.336;2023-04-24T12:10:23;14.50;99.90
14471;DHT22;7321;50.802;4.336;2023-04-24T12:12:51;14.50;99.90
14471;DHT22;7321;50.802;4.336;2023-04-24T12:15:21;14.50;99.90
14471;DHT22;7321;50.802;4.336;2023-04-24T12:17:47;14.50;99.90
14471;DHT22;7321;50.802;4.336;2023-04-24T12:20:14;14.40;99.90
14471;DHT22;7321;50.802;4.336;2023-04-24T12:22:50;14.40;99.90
14471;DHT22;7321;50.802;4.336;2023-04-24T12:25:19;14.40;99.90
14471;DHT22;7321;50.802;4.336;2023-04-24T12:27:46;14.40;99.90
14471;DHT22;7321;50.802;4.336;2023-04-24T12:30:17;14.50;99.90
14471;DHT22;7321;50.802;4.336;2023-04-24T12:32:48;14.50;99.90
14471;DHT22;7321;50.802;4.336;2023-04-24T12:35:19;14.60;99.90
14471;DHT22;7321;50.802;4.336;2023-04-24T12:37:46;14.80;99.90
14471;DHT22;7321;50.802;4.336;2023-04-24T12:40:13;14.90;99.90
14471;DHT22;7321;50.802;4.336;2023-04-24T12:42:47;14.90;99.90
14471;DHT22;7321;50.802;4.336;2023-04-24T12:45:15;14.80;99.90
14471;DHT22;7321;50.802;4.336;2023-04-24T12:47:42;14.80;99.90
14471;DHT22;7321;50.802;4.336;2023-04-24T12:50:12;15.00;99.90
14471;DHT22;7321;50.802;4.336;2023-04-24T12:52:39;15.50;99.90
14471;DHT22;7321;50.802;4.336;2023-04-24T12:55:06;15.50;99.90
14471;DHT22;7321;50.802;4.336;2023-04-24T12:57:37;15.50;99.90
14471;DHT22;7321;50.802;4.336;2023-04-24T13:00:03;15.50;99.90
14471;DHT22;7321;50.802;4.336;2023-04-24T13:02:30;15.00;99.90
14471;DHT22;7321;50.802;4.336;2023-04-24T13:04:57;14.80;99.90
14471;DHT22;7321;50.802;4.336;2023-04-24T13:07:23;14.60;99.90
14471;DHT22;7321;50.802;4.336;2023-04-24T13:10:31;14.60;99.90
14471;DHT22;7321;50.802;4.336;2023-04-24T13:12:42;14.70;99.90
14471;DHT22;7321;50.802;4.336;2023-04-24T13:15:10;14.60;99.90
14471;DHT22;7321;50.802;4.336;2023-04-24T13:17:36;14.50;99.90
14471;DHT22;7321;50.802;4.336;2023-04-24T13:20:02;14.30;99.90
14471;DHT22;7321;50.802;4.336;2023-04-24T13:22:28;14.40;99.90
14471;DHT22;7321;50.802;4.336;2023-04-24T13:24:54;14.60;99.90
14471;DHT22;7321;50.802;4.336;2023-04-24T13:27:20;14.70;99.90
14471;DHT22;7321;50.802;4.336;2023-04-24T13:29:46;14.70;99.90
14471;DHT22;7321;50.802;4.336;2023-04-24T13:32:12;14.40;99.90
14471;DHT22;7321;50.802;4.336;2023-04-24T13:34:37;14.40;99.90
14471;DHT22;7321;50.802;4.336;2023-04-24T13:37:04;14.30;99.90
14471;DHT22;7321;50.802;4.336;2023-04-24T13:39:30;14.60;99.90
14471;DHT22;7321;50.802;4.336;2023-04-24T13:41:58;14.80;99.90
14471;DHT22;7321;50.802;4.336;2023-04-24T13:44:24;14.80;99.90
14471;DHT22;7321;50.802;4.336;2023-04-24T13:46:52;14.90;99.90
14471;DHT22;7321;50.802;4.336;2023-04-24T13:49:20;15.00;99.90
14471;DHT22;7321;50.802;4.336;2023-04-24T13:51:46;15.20;99.90
14471;DHT22;7321;50.802;4.336;2023-04-24T13:54:12;15.00;99.90
14471;DHT22;7321;50.802;4.336;2023-04-24T13:56:42;14.90;99.90
14471;DHT22;7321;50.802;4.336;2023-04-24T13:59:08;15.10;99.90
14471;DHT22;7321;50.802;4.336;2023-04-24T14:01:34;15.20;99.90
14471;DHT22;7321;50.802;4.336;2023-04-24T14:04:00;15.20;99.90
14471;DHT22;7321;50.802;4.336;2023-04-24T14:06:26;14.80;99.90
14471;DHT22;7321;50.802;4.336;2023-04-24T14:08:52;14.60;99.90
14471;DHT22;7321;50.802;4.336;2023-04-24T14:11:21;14.40;99.90
14471;DHT22;7321;50.802;4.336;2023-04-24T14:14:09;14.50;99.90
14471;DHT22;7321;50.802;4.336;2023-04-24T14:16:37;14.30;99.90
14471;DHT22;7321;50.802;4.336;2023-04-24T14:19:03;14.10;99.90
14471;DHT22;7321;50.802;4.336;2023-04-24T14:21:30;14.00;99.90
14471;DHT22;7321;50.802;4.336;2023-04-24T14:23:56;13.90;99.90
14471;DHT22;7321;50.802;4.336;2023-04-24T14:26:22;13.90;99.90
14471;DHT22;7321;50.802;4.336;2023-04-24T14:28:50;14.20;99.90
14471;DHT22;7321;50.802;4.336;2023-04-24T14:31:16;14.00;99.90
14471;DHT22;7321;50.802;4.336;2023-04-24T14:33:42;13.70;99.90
14471;DHT22;7321;50.802;4.336;2023-04-24T14:36:08;13.60;99.90
14471;DHT22;7321;50.802;4.336;2023-04-24T14:38:34;13.50;99.90
14471;DHT22;7321;50.802;4.336;2023-04-24T14:41:00;13.30;99.90
14471;DHT22;7321;50.802;4.336;2023-04-24T14:43:26;13.20;99.90
14471;DHT22;7321;50.802;4.336;2023-04-24T14:45:52;13.30;99.90
14471;DHT22;7321;50.802;4.336;2023-04-24T14:48:18;13.30;99.90
14471;DHT22;7321;50.802;4.336;2023-04-24T14:50:44;13.30;99.90
14471;DHT22;7321;50.802;4.336;2023-04-24T14:53:10;13.30;99.90
14471;DHT22;7321;50.802;4.336;2023-04-24T14:55:36;13.50;99.90
14471;DHT22;7321;50.802;4.336;2023-04-24T14:58:02;13.70;99.90
14471;DHT22;7321;50.802;4.336;2023-04-24T15:00:32;13.90;99.90
14471;DHT22;7321;50.802;4.336;2023-04-24T15:03:03;13.90;99.90
14471;DHT22;7321;50.802;4.336;2023-04-24T15:05:29;13.80;99.90
14471;DHT22;7321;50.802;4.336;2023-04-24T15:07:56;14.10;99.90
14471;DHT22;7321;50.802;4.336;2023-04-24T15:10:21;14.20;99.90
14471;DHT22;7321;50.802;4.336;2023-04-24T15:12:49;14.10;99.90
14471;DHT22;7321;50.802;4.336;2023-04-24T15:15:15;14.00;99.90
14471;DHT22;7321;50.802;4.336;2023-04-24T15:17:41;14.00;99.90
14471;DHT22;7321;50.802;4.336;2023-04-24T15:20:10;14.00;99.90
14471;DHT22;7321;50.802;4.336;2023-04-24T15:22:46;13.90;99.90
14471;DHT22;7321;50.802;4.336;2023-04-24T15:25:12;14.10;99.90
14471;DHT22;7321;50.802;4.336;2023-04-24T15:27:45;14.20;99.90
14471;DHT22;7321;50.802;4.336;2023-04-24T15:30:12;14.30;99.90
14471;DHT22;7321;50.802;4.336;2023-04-24T15:32:39;14.20;99.90
14471;DHT22;7321;50.802;4.336;2023-04-24T15:35:05;14.00;99.90
14471;DHT22;7321;50.802;4.336;2023-04-24T15:37:31;14.20;99.90
14471;DHT22;7321;50.802;4.336;2023-04-24T15:39:57;14.20;99.90
14471;DHT22;7321;50.802;4.336;2023-04-24T15:42:25;14.40;99.90
14471;DHT22;7321;50.802;4.336;2023-04-24T15:44:52;14.40;99.90
14471;DHT22;7321;50.802;4.336;2023-04-24T15:47:27;14.50;99.90
14471;DHT22;7321;50.802;4.336;2023-04-24T15:49:53;14.50;99.90
14471;DHT22;7321;50.802;4.336;2023-04-24T15:52:19;14.40;99.90
14471;DHT22;7321;50.802;4.336;2023-04-24T15:54:45;14.10;99.90
14471;DHT22;7321;50.802;4.336;2023-04-24T15:57:11;13.90;99.90